sensor_id;sensor_type;location;lat;lon;timestamp;P1;durP1;ratioP1;P2;durP2;ratioP2
17949;SDS011;9100;48.700;9.316;2023-05-17T00:00:50;1.9;;;1.2;;
17949;SDS011;9100;48.700;9.316;2023-05-17T00:01:51;1.9;;;1.2;;
17949;SDS011;9100;48.700;9.316;2023-05-17T00:02:51;1.9;;;1.2;;
17949;SDS011;9100;48.700;9.316;2023-05-17T00:03:51;1.9;;;1.2;;
17949;SDS011;9100;48.700;9.316;2023-05-17T00:04:51;4.7;;;1.5;;
17949;SDS011;9100;48.700;9.316;2023-05-17T00:04:53;4.7;;;1.5;;
17949;SDS011;9100;48.700;9.316;2023-05-17T00:05:50;4.7;;;1.5;;
17949;SDS011;9100;48.700;9.316;2023-05-17T00:06:51;4.7;;;1.5;;
17949;SDS011;9100;48.700;9.316;2023-05-17T00:07:51;4.7;;;1.5;;
17949;SDS011;9100;48.700;9.316;2023-05-17T00:08:51;4.7;;;1.5;;
17949;SDS011;9100;48.700;9.316;2023-05-17T00:09:51;2.2;;;1.2;;
17949;SDS011;9100;48.700;9.316;2023-05-17T00:09:53;2.2;;;1.1;;
17949;SDS011;9100;48.700;9.316;2023-05-17T00:10:51;2.2;;;1.1;;
17949;SDS011;9100;48.700;9.316;2023-05-17T00:11:51;2.2;;;1.1;;
17949;SDS011;9100;48.700;9.316;2023-05-17T00:12:51;2.2;;;1.1;;
17949;SDS011;9100;48.700;9.316;2023-05-17T00:13:51;2.2;;;1.1;;
17949;SDS011;9100;48.700;9.316;2023-05-17T00:14:51;1.1;;;1.1;;
17949;SDS011;9100;48.700;9.316;2023-05-17T00:14:53;1;;;1;;
17949;SDS011;9100;48.700;9.316;2023-05-17T00:15:51;1;;;1;;
17949;SDS011;9100;48.700;9.316;2023-05-17T00:16:51;1;;;1;;
17949;SDS011;9100;48.700;9.316;2023-05-17T00:17:51;1;;;1;;
17949;SDS011;9100;48.700;9.316;2023-05-17T00:18:51;1;;;1;;
17949;SDS011;9100;48.700;9.316;2023-05-17T00:19:51;1.6;;;1.1;;
17949;SDS011;9100;48.700;9.316;2023-05-17T00:19:53;1.5;;;1.1;;
17949;SDS011;9100;48.700;9.316;2023-05-17T00:20:50;1.5;;;1.1;;
17949;SDS011;9100;48.700;9.316;2023-05-17T00:21:51;1.5;;;1.1;;
17949;SDS011;9100;48.700;9.316;2023-05-17T00:22:51;1.5;;;1.1;;
17949;SDS011;9100;48.700;9.316;2023-05-17T00:23:51;1.5;;;1.1;;
17949;SDS011;9100;48.700;9.316;2023-05-17T00:24:51;1;;;1;;
17949;SDS011;9100;48.700;9.316;2023-05-17T00:24:53;0.9;;;0.9;;
17949;SDS011;9100;48.700;9.316;2023-05-17T00:25:51;0.9;;;0.9;;
17949;SDS011;9100;48.700;9.316;2023-05-17T00:26:51;0.9;;;0.9;;
17949;SDS011;9100;48.700;9.316;2023-05-17T00:27:51;0.9;;;0.9;;
17949;SDS011;9100;48.700;9.316;2023-05-17T00:28:51;0.9;;;0.9;;
17949;SDS011;9100;48.700;9.316;2023-05-17T00:29:51;1.2;;;1.1;;
17949;SDS011;9100;48.700;9.316;2023-05-17T00:29:53;1.2;;;1.1;;
17949;SDS011;9100;48.700;9.316;2023-05-17T00:30:51;1.2;;;1.1;;
17949;SDS011;9100;48.700;9.316;2023-05-17T00:31:51;1.2;;;1.1;;
17949;SDS011;9100;48.700;9.316;2023-05-17T00:32:51;1.2;;;1.1;;
17949;SDS011;9100;48.700;9.316;2023-05-17T00:33:51;1.2;;;1.1;;
17949;SDS011;9100;48.700;9.316;2023-05-17T00:34:51;1.9;;;1.2;;
17949;SDS011;9100;48.700;9.316;2023-05-17T00:34:53;1.9;;;1.2;;
17949;SDS011;9100;48.700;9.316;2023-05-17T00:35:51;1.9;;;1.2;;
17949;SDS011;9100;48.700;9.316;2023-05-17T00:36:50;1.9;;;1.2;;
17949;SDS011;9100;48.700;9.316;2023-05-17T00:37:51;1.9;;;1.2;;
17949;SDS011;9100;48.700;9.316;2023-05-17T00:38:51;1.9;;;1.2;;
17949;SDS011;9100;48.700;9.316;2023-05-17T00:39:51;1.6;;;1.3;;
17949;SDS011;9100;48.700;9.316;2023-05-17T00:39:53;1.6;;;1.3;;
17949;SDS011;9100;48.700;9.316;2023-05-17T00:40:50;1.6;;;1.3;;
17949;SDS011;9100;48.700;9.316;2023-05-17T00:41:50;1.6;;;1.3;;
17949;SDS011;9100;48.700;9.316;2023-05-17T00:42:51;1.6;;;1.3;;
17949;SDS011;9100;48.700;9.316;2023-05-17T00:43:50;1.6;;;1.3;;
17949;SDS011;9100;48.700;9.316;2023-05-17T00:44:51;1.3;;;1.2;;
17949;SDS011;9100;48.700;9.316;2023-05-17T00:44:53;1.3;;;1.2;;
17949;SDS011;9100;48.700;9.316;2023-05-17T00:45:51;1.3;;;1.2;;
17949;SDS011;9100;48.700;9.316;2023-05-17T00:46:51;1.3;;;1.2;;
17949;SDS011;9100;48.700;9.316;2023-05-17T00:47:51;1.3;;;1.2;;
17949;SDS011;9100;48.700;9.316;2023-05-17T00:48:51;1.3;;;1.2;;
17949;SDS011;9100;48.700;9.316;2023-05-17T00:49:51;3.4;;;1.5;;
17949;SDS011;9100;48.700;9.316;2023-05-17T00:49:53;3.1;;;1.5;;
17949;SDS011;9100;48.700;9.316;2023-05-17T00:50:51;3.1;;;1.5;;
17949;SDS011;9100;48.700;9.316;2023-05-17T00:51:51;3.1;;;1.5;;
17949;SDS011;9100;48.700;9.316;2023-05-17T00:52:51;3.1;;;1.5;;
17949;SDS011;9100;48.700;9.316;2023-05-17T00:53:50;3.1;;;1.5;;
17949;SDS011;9100;48.700;9.316;2023-05-17T00:54:51;1.3;;;1.2;;
17949;SDS011;9100;48.700;9.316;2023-05-17T00:54:53;1.3;;;1.2;;
17949;SDS011;9100;48.700;9.316;2023-05-17T00:55:51;1.3;;;1.2;;
17949;SDS011;9100;48.700;9.316;2023-05-17T00:56:51;1.3;;;1.2;;
17949;SDS011;9100;48.700;9.316;2023-05-17T00:57:51;1.3;;;1.2;;
17949;SDS011;9100;48.700;9.316;2023-05-17T00:58:51;1.3;;;1.2;;
17949;SDS011;9100;48.700;9.316;2023-05-17T00:59:51;3.2;;;2.1;;
17949;SDS011;9100;48.700;9.316;2023-05-17T00:59:53;3.2;;;2;;
17949;SDS011;9100;48.700;9.316;2023-05-17T01:00:51;3.2;;;2;;
17949;SDS011;9100;48.700;9.316;2023-05-17T01:01:51;3.2;;;2;;
17949;SDS011;9100;48.700;9.316;2023-05-17T01:02:51;3.2;;;2;;
17949;SDS011;9100;48.700;9.316;2023-05-17T01:03:51;3.2;;;2;;
17949;SDS011;9100;48.700;9.316;2023-05-17T01:04:51;4.7;;;2.4;;
17949;SDS011;9100;48.700;9.316;2023-05-17T01:04:53;4.8;;;2.3;;
17949;SDS011;9100;48.700;9.316;2023-05-17T01:05:51;4.8;;;2.3;;
17949;SDS011;9100;48.700;9.316;2023-05-17T01:06:50;4.8;;;2.3;;
17949;SDS011;9100;48.700;9.316;2023-05-17T01:07:50;4.8;;;2.3;;
17949;SDS011;9100;48.700;9.316;2023-05-17T01:08:50;4.8;;;2.3;;
17949;SDS011;9100;48.700;9.316;2023-05-17T01:09:50;2.3;;;2.1;;
17949;SDS011;9100;48.700;9.316;2023-05-17T01:09:53;2.2;;;2;;
17949;SDS011;9100;48.700;9.316;2023-05-17T01:10:52;2.2;;;2;;
17949;SDS011;9100;48.700;9.316;2023-05-17T01:11:52;2.2;;;2;;
17949;SDS011;9100;48.700;9.316;2023-05-17T01:12:54;2.2;;;2;;
17949;SDS011;9100;48.700;9.316;2023-05-17T01:13:52;2.2;;;2;;
17949;SDS011;9100;48.700;9.316;2023-05-17T01:14:53;5.5;;;2.3;;
17949;SDS011;9100;48.700;9.316;2023-05-17T01:14:56;5.3;;;2.3;;
17949;SDS011;9100;48.700;9.316;2023-05-17T01:15:52;5.3;;;2.3;;
17949;SDS011;9100;48.700;9.316;2023-05-17T01:16:52;5.3;;;2.3;;
17949;SDS011;9100;48.700;9.316;2023-05-17T01:17:53;5.3;;;2.3;;
17949;SDS011;9100;48.700;9.316;2023-05-17T01:18:51;5.3;;;2.3;;
17949;SDS011;9100;48.700;9.316;2023-05-17T01:19:54;2.9;;;2.1;;
17949;SDS011;9100;48.700;9.316;2023-05-17T01:19:55;2.9;;;2.1;;
17949;SDS011;9100;48.700;9.316;2023-05-17T01:20:51;2.9;;;2.1;;
17949;SDS011;9100;48.700;9.316;2023-05-17T01:21:56;2.9;;;2.1;;
17949;SDS011;9100;48.700;9.316;2023-05-17T01:22:52;2.9;;;2.1;;
17949;SDS011;9100;48.700;9.316;2023-05-17T01:23:54;2.9;;;2.1;;
17949;SDS011;9100;48.700;9.316;2023-05-17T01:24:52;3;;;2.2;;
17949;SDS011;9100;48.700;9.316;2023-05-17T01:25:03;3;;;2.2;;
17949;SDS011;9100;48.700;9.316;2023-05-17T01:25:53;3;;;2.2;;
17949;SDS011;9100;48.700;9.316;2023-05-17T01:26:51;3;;;2.2;;
17949;SDS011;9100;48.700;9.316;2023-05-17T01:27:51;3;;;2.2;;
17949;SDS011;9100;48.700;9.316;2023-05-17T01:28:51;3;;;2.2;;
17949;SDS011;9100;48.700;9.316;2023-05-17T01:29:51;4.7;;;2.1;;
17949;SDS011;9100;48.700;9.316;2023-05-17T01:29:53;4.6;;;2.1;;
17949;SDS011;9100;48.700;9.316;2023-05-17T01:30:51;4.6;;;2.1;;
17949;SDS011;9100;48.700;9.316;2023-05-17T01:31:51;4.6;;;2.1;;
17949;SDS011;9100;48.700;9.316;2023-05-17T01:32:51;4.6;;;2.1;;
17949;SDS011;9100;48.700;9.316;2023-05-17T01:33:51;4.6;;;2.1;;
17949;SDS011;9100;48.700;9.316;2023-05-17T01:34:50;2.2;;;2.1;;
17949;SDS011;9100;48.700;9.316;2023-05-17T01:34:53;2.2;;;2.1;;
17949;SDS011;9100;48.700;9.316;2023-05-17T01:35:51;2.2;;;2.1;;
17949;SDS011;9100;48.700;9.316;2023-05-17T01:36:51;2.2;;;2.1;;
17949;SDS011;9100;48.700;9.316;2023-05-17T01:37:51;2.2;;;2.1;;
17949;SDS011;9100;48.700;9.316;2023-05-17T01:38:51;2.2;;;2.1;;
17949;SDS011;9100;48.700;9.316;2023-05-17T01:39:51;4.7;;;2.7;;
17949;SDS011;9100;48.700;9.316;2023-05-17T01:39:53;4.6;;;2.6;;
17949;SDS011;9100;48.700;9.316;2023-05-17T01:40:51;4.6;;;2.6;;
17949;SDS011;9100;48.700;9.316;2023-05-17T01:41:53;4.6;;;2.6;;
17949;SDS011;9100;48.700;9.316;2023-05-17T01:42:52;4.6;;;2.6;;
17949;SDS011;9100;48.700;9.316;2023-05-17T01:43:54;4.6;;;2.6;;
17949;SDS011;9100;48.700;9.316;2023-05-17T01:44:53;4.2;;;1.8;;
17949;SDS011;9100;48.700;9.316;2023-05-17T01:44:58;4.2;;;1.8;;
17949;SDS011;9100;48.700;9.316;2023-05-17T01:45:52;4.2;;;1.8;;
17949;SDS011;9100;48.700;9.316;2023-05-17T01:46:51;4.2;;;1.8;;
17949;SDS011;9100;48.700;9.316;2023-05-17T01:47:52;4.2;;;1.8;;
17949;SDS011;9100;48.700;9.316;2023-05-17T01:48:51;4.2;;;1.8;;
17949;SDS011;9100;48.700;9.316;2023-05-17T01:49:51;6.1;;;2.4;;
17949;SDS011;9100;48.700;9.316;2023-05-17T01:49:53;6.2;;;2.4;;
17949;SDS011;9100;48.700;9.316;2023-05-17T01:50:51;6.2;;;2.4;;
17949;SDS011;9100;48.700;9.316;2023-05-17T01:51:52;6.2;;;2.4;;
17949;SDS011;9100;48.700;9.316;2023-05-17T01:52:52;6.2;;;2.4;;
17949;SDS011;9100;48.700;9.316;2023-05-17T01:53:52;6.2;;;2.4;;
17949;SDS011;9100;48.700;9.316;2023-05-17T01:54:53;4.3;;;1.9;;
17949;SDS011;9100;48.700;9.316;2023-05-17T01:54:53;4.3;;;1.9;;
17949;SDS011;9100;48.700;9.316;2023-05-17T01:55:53;4.3;;;1.9;;
17949;SDS011;9100;48.700;9.316;2023-05-17T01:56:52;4.3;;;1.9;;
17949;SDS011;9100;48.700;9.316;2023-05-17T01:57:51;4.3;;;1.9;;
17949;SDS011;9100;48.700;9.316;2023-05-17T01:58:51;4.3;;;1.9;;
17949;SDS011;9100;48.700;9.316;2023-05-17T01:59:51;4;;;2.2;;
17949;SDS011;9100;48.700;9.316;2023-05-17T01:59:53;3.9;;;2.2;;
17949;SDS011;9100;48.700;9.316;2023-05-17T02:00:51;3.9;;;2.2;;
17949;SDS011;9100;48.700;9.316;2023-05-17T02:01:51;3.9;;;2.2;;
17949;SDS011;9100;48.700;9.316;2023-05-17T02:02:51;3.9;;;2.2;;
17949;SDS011;9100;48.700;9.316;2023-05-17T02:03:51;3.9;;;2.2;;
17949;SDS011;9100;48.700;9.316;2023-05-17T02:04:50;3;;;2.2;;
17949;SDS011;9100;48.700;9.316;2023-05-17T02:04:53;2.8;;;2.2;;
17949;SDS011;9100;48.700;9.316;2023-05-17T02:05:51;2.8;;;2.2;;
17949;SDS011;9100;48.700;9.316;2023-05-17T02:06:51;2.8;;;2.2;;
17949;SDS011;9100;48.700;9.316;2023-05-17T02:07:51;2.8;;;2.2;;
17949;SDS011;9100;48.700;9.316;2023-05-17T02:08:51;2.8;;;2.2;;
17949;SDS011;9100;48.700;9.316;2023-05-17T02:09:51;2.9;;;2.4;;
17949;SDS011;9100;48.700;9.316;2023-05-17T02:09:53;2.9;;;2.3;;
17949;SDS011;9100;48.700;9.316;2023-05-17T02:10:51;2.9;;;2.3;;
17949;SDS011;9100;48.700;9.316;2023-05-17T02:11:51;2.9;;;2.3;;
17949;SDS011;9100;48.700;9.316;2023-05-17T02:12:51;2.9;;;2.3;;
17949;SDS011;9100;48.700;9.316;2023-05-17T02:13:51;2.9;;;2.3;;
17949;SDS011;9100;48.700;9.316;2023-05-17T02:14:51;2.2;;;2;;
17949;SDS011;9100;48.700;9.316;2023-05-17T02:14:53;2.2;;;2;;
17949;SDS011;9100;48.700;9.316;2023-05-17T02:15:51;2.2;;;2;;
17949;SDS011;9100;48.700;9.316;2023-05-17T02:16:51;2.2;;;2;;
17949;SDS011;9100;48.700;9.316;2023-05-17T02:17:51;2.2;;;2;;
17949;SDS011;9100;48.700;9.316;2023-05-17T02:18:51;2.2;;;2;;
17949;SDS011;9100;48.700;9.316;2023-05-17T02:19:51;1.9;;;1.8;;
17949;SDS011;9100;48.700;9.316;2023-05-17T02:19:53;1.9;;;1.8;;
17949;SDS011;9100;48.700;9.316;2023-05-17T02:20:51;1.9;;;1.8;;
17949;SDS011;9100;48.700;9.316;2023-05-17T02:21:51;1.9;;;1.8;;
17949;SDS011;9100;48.700;9.316;2023-05-17T02:22:51;1.9;;;1.8;;
17949;SDS011;9100;48.700;9.316;2023-05-17T02:23:51;1.9;;;1.8;;
17949;SDS011;9100;48.700;9.316;2023-05-17T02:24:51;4.1;;;2.1;;
17949;SDS011;9100;48.700;9.316;2023-05-17T02:24:53;4;;;2;;
17949;SDS011;9100;48.700;9.316;2023-05-17T02:25:51;4;;;2;;
17949;SDS011;9100;48.700;9.316;2023-05-17T02:26:51;4;;;2;;
17949;SDS011;9100;48.700;9.316;2023-05-17T02:27:51;4;;;2;;
17949;SDS011;9100;48.700;9.316;2023-05-17T02:28:51;4;;;2;;
17949;SDS011;9100;48.700;9.316;2023-05-17T02:29:51;4.5;;;2.4;;
17949;SDS011;9100;48.700;9.316;2023-05-17T02:29:53;4.5;;;2.4;;
17949;SDS011;9100;48.700;9.316;2023-05-17T02:30:51;4.5;;;2.4;;
17949;SDS011;9100;48.700;9.316;2023-05-17T02:31:51;4.5;;;2.4;;
17949;SDS011;9100;48.700;9.316;2023-05-17T02:32:51;4.5;;;2.4;;
17949;SDS011;9100;48.700;9.316;2023-05-17T02:33:51;4.5;;;2.4;;
17949;SDS011;9100;48.700;9.316;2023-05-17T02:34:51;3.6;;;1.9;;
17949;SDS011;9100;48.700;9.316;2023-05-17T02:34:53;3.3;;;1.8;;
17949;SDS011;9100;48.700;9.316;2023-05-17T02:35:51;3.3;;;1.8;;
17949;SDS011;9100;48.700;9.316;2023-05-17T02:36:51;3.3;;;1.8;;
17949;SDS011;9100;48.700;9.316;2023-05-17T02:37:51;3.3;;;1.8;;
17949;SDS011;9100;48.700;9.316;2023-05-17T02:38:51;3.3;;;1.8;;
17949;SDS011;9100;48.700;9.316;2023-05-17T02:39:51;2.7;;;1.8;;
17949;SDS011;9100;48.700;9.316;2023-05-17T02:39:53;2.8;;;1.8;;
17949;SDS011;9100;48.700;9.316;2023-05-17T02:40:51;2.8;;;1.8;;
17949;SDS011;9100;48.700;9.316;2023-05-17T02:41:51;2.8;;;1.8;;
17949;SDS011;9100;48.700;9.316;2023-05-17T02:42:51;2.8;;;1.8;;
17949;SDS011;9100;48.700;9.316;2023-05-17T02:43:51;2.8;;;1.8;;
17949;SDS011;9100;48.700;9.316;2023-05-17T02:44:51;2.7;;;2;;
17949;SDS011;9100;48.700;9.316;2023-05-17T02:44:53;2.7;;;1.9;;
17949;SDS011;9100;48.700;9.316;2023-05-17T02:45:51;2.7;;;1.9;;
17949;SDS011;9100;48.700;9.316;2023-05-17T02:46:51;2.7;;;1.9;;
17949;SDS011;9100;48.700;9.316;2023-05-17T02:47:51;2.7;;;1.9;;
17949;SDS011;9100;48.700;9.316;2023-05-17T02:48:51;2.7;;;1.9;;
17949;SDS011;9100;48.700;9.316;2023-05-17T02:49:51;3;;;2.2;;
17949;SDS011;9100;48.700;9.316;2023-05-17T02:49:53;3;;;2.1;;
17949;SDS011;9100;48.700;9.316;2023-05-17T02:50:51;3;;;2.1;;
17949;SDS011;9100;48.700;9.316;2023-05-17T02:51:51;3;;;2.1;;
17949;SDS011;9100;48.700;9.316;2023-05-17T02:52:51;3;;;2.1;;
17949;SDS011;9100;48.700;9.316;2023-05-17T02:53:51;3;;;2.1;;
17949;SDS011;9100;48.700;9.316;2023-05-17T02:54:51;2.9;;;2.1;;
17949;SDS011;9100;48.700;9.316;2023-05-17T02:54:53;2.9;;;2.1;;
17949;SDS011;9100;48.700;9.316;2023-05-17T02:55:51;2.9;;;2.1;;
17949;SDS011;9100;48.700;9.316;2023-05-17T02:56:51;2.9;;;2.1;;
17949;SDS011;9100;48.700;9.316;2023-05-17T02:57:51;2.9;;;2.1;;
17949;SDS011;9100;48.700;9.316;2023-05-17T02:58:51;2.9;;;2.1;;
17949;SDS011;9100;48.700;9.316;2023-05-17T02:59:51;3;;;1.8;;
17949;SDS011;9100;48.700;9.316;2023-05-17T02:59:53;3.1;;;1.8;;
17949;SDS011;9100;48.700;9.316;2023-05-17T03:00:51;3.1;;;1.8;;
17949;SDS011;9100;48.700;9.316;2023-05-17T03:01:51;3.1;;;1.8;;
17949;SDS011;9100;48.700;9.316;2023-05-17T03:02:51;3.1;;;1.8;;
17949;SDS011;9100;48.700;9.316;2023-05-17T03:03:51;3.1;;;1.8;;
17949;SDS011;9100;48.700;9.316;2023-05-17T03:04:51;3.9;;;2.3;;
17949;SDS011;9100;48.700;9.316;2023-05-17T03:04:53;3.8;;;2.3;;
17949;SDS011;9100;48.700;9.316;2023-05-17T03:05:51;3.8;;;2.3;;
17949;SDS011;9100;48.700;9.316;2023-05-17T03:06:51;3.8;;;2.3;;
17949;SDS011;9100;48.700;9.316;2023-05-17T03:07:51;3.8;;;2.3;;
17949;SDS011;9100;48.700;9.316;2023-05-17T03:08:51;3.8;;;2.3;;
17949;SDS011;9100;48.700;9.316;2023-05-17T03:09:51;3.5;;;2.6;;
17949;SDS011;9100;48.700;9.316;2023-05-17T03:09:53;3.4;;;2.6;;
17949;SDS011;9100;48.700;9.316;2023-05-17T03:10:51;3.4;;;2.6;;
17949;SDS011;9100;48.700;9.316;2023-05-17T03:11:51;3.4;;;2.6;;
17949;SDS011;9100;48.700;9.316;2023-05-17T03:12:51;3.4;;;2.6;;
17949;SDS011;9100;48.700;9.316;2023-05-17T03:13:51;3.4;;;2.6;;
17949;SDS011;9100;48.700;9.316;2023-05-17T03:14:51;5.7;;;2.7;;
17949;SDS011;9100;48.700;9.316;2023-05-17T03:14:53;5.7;;;2.6;;
17949;SDS011;9100;48.700;9.316;2023-05-17T03:15:51;5.7;;;2.6;;
17949;SDS011;9100;48.700;9.316;2023-05-17T03:16:51;5.7;;;2.6;;
17949;SDS011;9100;48.700;9.316;2023-05-17T03:17:51;5.7;;;2.6;;
17949;SDS011;9100;48.700;9.316;2023-05-17T03:18:51;5.7;;;2.6;;
17949;SDS011;9100;48.700;9.316;2023-05-17T03:19:51;4.7;;;2.4;;
17949;SDS011;9100;48.700;9.316;2023-05-17T03:19:53;4.6;;;2.4;;
17949;SDS011;9100;48.700;9.316;2023-05-17T03:20:51;4.6;;;2.4;;
17949;SDS011;9100;48.700;9.316;2023-05-17T03:21:51;4.6;;;2.4;;
17949;SDS011;9100;48.700;9.316;2023-05-17T03:22:51;4.6;;;2.4;;
17949;SDS011;9100;48.700;9.316;2023-05-17T03:23:51;4.6;;;2.4;;
17949;SDS011;9100;48.700;9.316;2023-05-17T03:24:51;3.8;;;2.3;;
17949;SDS011;9100;48.700;9.316;2023-05-17T03:24:53;3.1;;;2.1;;
17949;SDS011;9100;48.700;9.316;2023-05-17T03:25:51;3.1;;;2.1;;
17949;SDS011;9100;48.700;9.316;2023-05-17T03:26:51;3.1;;;2.1;;
17949;SDS011;9100;48.700;9.316;2023-05-17T03:27:51;3.1;;;2.1;;
17949;SDS011;9100;48.700;9.316;2023-05-17T03:28:51;3.1;;;2.1;;
17949;SDS011;9100;48.700;9.316;2023-05-17T03:29:51;4.1;;;2.6;;
17949;SDS011;9100;48.700;9.316;2023-05-17T03:29:53;4.1;;;2.6;;
17949;SDS011;9100;48.700;9.316;2023-05-17T03:30:51;4.1;;;2.6;;
17949;SDS011;9100;48.700;9.316;2023-05-17T03:31:51;4.1;;;2.6;;
17949;SDS011;9100;48.700;9.316;2023-05-17T03:32:51;4.1;;;2.6;;
17949;SDS011;9100;48.700;9.316;2023-05-17T03:33:51;4.1;;;2.6;;
17949;SDS011;9100;48.700;9.316;2023-05-17T03:34:51;4;;;2.8;;
17949;SDS011;9100;48.700;9.316;2023-05-17T03:34:53;4;;;2.8;;
17949;SDS011;9100;48.700;9.316;2023-05-17T03:35:51;4;;;2.8;;
17949;SDS011;9100;48.700;9.316;2023-05-17T03:36:51;4;;;2.8;;
17949;SDS011;9100;48.700;9.316;2023-05-17T03:37:51;4;;;2.8;;
17949;SDS011;9100;48.700;9.316;2023-05-17T03:38:51;4;;;2.8;;
17949;SDS011;9100;48.700;9.316;2023-05-17T03:39:51;5;;;2.7;;
17949;SDS011;9100;48.700;9.316;2023-05-17T03:39:53;5;;;2.7;;
17949;SDS011;9100;48.700;9.316;2023-05-17T03:40:51;5;;;2.7;;
17949;SDS011;9100;48.700;9.316;2023-05-17T03:41:51;5;;;2.7;;
17949;SDS011;9100;48.700;9.316;2023-05-17T03:42:51;5;;;2.7;;
17949;SDS011;9100;48.700;9.316;2023-05-17T03:43:51;5;;;2.7;;
17949;SDS011;9100;48.700;9.316;2023-05-17T03:44:51;3.4;;;2.8;;
17949;SDS011;9100;48.700;9.316;2023-05-17T03:44:53;3.4;;;2.8;;
17949;SDS011;9100;48.700;9.316;2023-05-17T03:45:51;3.4;;;2.8;;
17949;SDS011;9100;48.700;9.316;2023-05-17T03:46:51;3.4;;;2.8;;
17949;SDS011;9100;48.700;9.316;2023-05-17T03:47:51;3.4;;;2.8;;
17949;SDS011;9100;48.700;9.316;2023-05-17T03:48:51;3.4;;;2.8;;
17949;SDS011;9100;48.700;9.316;2023-05-17T03:49:51;4.4;;;2.3;;
17949;SDS011;9100;48.700;9.316;2023-05-17T03:49:53;4.6;;;2.3;;
17949;SDS011;9100;48.700;9.316;2023-05-17T03:50:51;4.6;;;2.3;;
17949;SDS011;9100;48.700;9.316;2023-05-17T03:51:51;4.6;;;2.3;;
17949;SDS011;9100;48.700;9.316;2023-05-17T03:52:51;4.6;;;2.3;;
17949;SDS011;9100;48.700;9.316;2023-05-17T03:53:55;4.6;;;2.3;;
17949;SDS011;9100;48.700;9.316;2023-05-17T03:54:51;2.9;;;2.4;;
17949;SDS011;9100;48.700;9.316;2023-05-17T03:54:53;2.9;;;2.3;;
17949;SDS011;9100;48.700;9.316;2023-05-17T03:55:51;2.9;;;2.3;;
17949;SDS011;9100;48.700;9.316;2023-05-17T03:56:51;2.9;;;2.3;;
17949;SDS011;9100;48.700;9.316;2023-05-17T03:57:51;2.9;;;2.3;;
17949;SDS011;9100;48.700;9.316;2023-05-17T03:58:51;2.9;;;2.3;;
17949;SDS011;9100;48.700;9.316;2023-05-17T03:59:51;7.2;;;2.5;;
17949;SDS011;9100;48.700;9.316;2023-05-17T03:59:53;7.5;;;2.5;;
17949;SDS011;9100;48.700;9.316;2023-05-17T04:00:51;7.5;;;2.5;;
17949;SDS011;9100;48.700;9.316;2023-05-17T04:01:51;7.5;;;2.5;;
17949;SDS011;9100;48.700;9.316;2023-05-17T04:02:51;7.5;;;2.5;;
17949;SDS011;9100;48.700;9.316;2023-05-17T04:03:51;7.5;;;2.5;;
17949;SDS011;9100;48.700;9.316;2023-05-17T04:04:51;3.6;;;2.3;;
17949;SDS011;9100;48.700;9.316;2023-05-17T04:04:53;3.6;;;2.2;;
17949;SDS011;9100;48.700;9.316;2023-05-17T04:05:51;3.6;;;2.2;;
17949;SDS011;9100;48.700;9.316;2023-05-17T04:06:51;3.6;;;2.2;;
17949;SDS011;9100;48.700;9.316;2023-05-17T04:07:51;3.6;;;2.2;;
17949;SDS011;9100;48.700;9.316;2023-05-17T04:08:51;3.6;;;2.2;;
17949;SDS011;9100;48.700;9.316;2023-05-17T04:09:51;4.5;;;2.9;;
17949;SDS011;9100;48.700;9.316;2023-05-17T04:09:53;4.7;;;2.9;;
17949;SDS011;9100;48.700;9.316;2023-05-17T04:10:51;4.7;;;2.9;;
17949;SDS011;9100;48.700;9.316;2023-05-17T04:11:51;4.7;;;2.9;;
17949;SDS011;9100;48.700;9.316;2023-05-17T04:12:51;4.7;;;2.9;;
17949;SDS011;9100;48.700;9.316;2023-05-17T04:13:51;4.7;;;2.9;;
17949;SDS011;9100;48.700;9.316;2023-05-17T04:14:51;2.5;;;2.3;;
17949;SDS011;9100;48.700;9.316;2023-05-17T04:14:53;2.5;;;2.3;;
17949;SDS011;9100;48.700;9.316;2023-05-17T04:15:51;2.5;;;2.3;;
17949;SDS011;9100;48.700;9.316;2023-05-17T04:16:51;2.5;;;2.3;;
17949;SDS011;9100;48.700;9.316;2023-05-17T04:17:51;2.5;;;2.3;;
17949;SDS011;9100;48.700;9.316;2023-05-17T04:18:51;2.5;;;2.3;;
17949;SDS011;9100;48.700;9.316;2023-05-17T04:19:51;4.9;;;2.4;;
17949;SDS011;9100;48.700;9.316;2023-05-17T04:19:53;4.9;;;2.4;;
17949;SDS011;9100;48.700;9.316;2023-05-17T04:20:51;4.9;;;2.4;;
17949;SDS011;9100;48.700;9.316;2023-05-17T04:21:51;4.9;;;2.4;;
17949;SDS011;9100;48.700;9.316;2023-05-17T04:22:51;4.9;;;2.4;;
17949;SDS011;9100;48.700;9.316;2023-05-17T04:23:51;4.9;;;2.4;;
17949;SDS011;9100;48.700;9.316;2023-05-17T04:24:51;4.2;;;2.7;;
17949;SDS011;9100;48.700;9.316;2023-05-17T04:24:53;4.3;;;2.7;;
17949;SDS011;9100;48.700;9.316;2023-05-17T04:25:51;4.3;;;2.7;;
17949;SDS011;9100;48.700;9.316;2023-05-17T04:26:51;4.3;;;2.7;;
17949;SDS011;9100;48.700;9.316;2023-05-17T04:27:51;4.3;;;2.7;;
17949;SDS011;9100;48.700;9.316;2023-05-17T04:28:51;4.3;;;2.7;;
17949;SDS011;9100;48.700;9.316;2023-05-17T04:29:51;4.3;;;2.7;;
17949;SDS011;9100;48.700;9.316;2023-05-17T04:29:53;4.3;;;2.7;;
17949;SDS011;9100;48.700;9.316;2023-05-17T04:30:51;4.3;;;2.7;;
17949;SDS011;9100;48.700;9.316;2023-05-17T04:31:51;4.3;;;2.7;;
17949;SDS011;9100;48.700;9.316;2023-05-17T04:32:51;4.3;;;2.7;;
17949;SDS011;9100;48.700;9.316;2023-05-17T04:33:51;4.3;;;2.7;;
17949;SDS011;9100;48.700;9.316;2023-05-17T04:34:51;4.2;;;2.6;;
17949;SDS011;9100;48.700;9.316;2023-05-17T04:34:53;4.4;;;2.6;;
17949;SDS011;9100;48.700;9.316;2023-05-17T04:35:53;4.4;;;2.6;;
17949;SDS011;9100;48.700;9.316;2023-05-17T04:36:51;4.4;;;2.6;;
17949;SDS011;9100;48.700;9.316;2023-05-17T04:37:51;4.4;;;2.6;;
17949;SDS011;9100;48.700;9.316;2023-05-17T04:38:51;4.4;;;2.6;;
17949;SDS011;9100;48.700;9.316;2023-05-17T04:39:51;5.8;;;2.2;;
17949;SDS011;9100;48.700;9.316;2023-05-17T04:39:53;6;;;2.2;;
17949;SDS011;9100;48.700;9.316;2023-05-17T04:40:51;6;;;2.2;;
17949;SDS011;9100;48.700;9.316;2023-05-17T04:41:51;6;;;2.2;;
17949;SDS011;9100;48.700;9.316;2023-05-17T04:42:51;6;;;2.2;;
17949;SDS011;9100;48.700;9.316;2023-05-17T04:43:51;6;;;2.2;;
17949;SDS011;9100;48.700;9.316;2023-05-17T04:44:51;8.1;;;3.2;;
17949;SDS011;9100;48.700;9.316;2023-05-17T04:44:53;8;;;3.2;;
17949;SDS011;9100;48.700;9.316;2023-05-17T04:45:54;8;;;3.2;;
17949;SDS011;9100;48.700;9.316;2023-05-17T04:46:51;8;;;3.2;;
17949;SDS011;9100;48.700;9.316;2023-05-17T04:47:51;8;;;3.2;;
17949;SDS011;9100;48.700;9.316;2023-05-17T04:48:51;8;;;3.2;;
17949;SDS011;9100;48.700;9.316;2023-05-17T04:49:51;4.3;;;3.3;;
17949;SDS011;9100;48.700;9.316;2023-05-17T04:49:53;4.4;;;3.3;;
17949;SDS011;9100;48.700;9.316;2023-05-17T04:50:51;4.4;;;3.3;;
17949;SDS011;9100;48.700;9.316;2023-05-17T04:51:51;4.4;;;3.3;;
17949;SDS011;9100;48.700;9.316;2023-05-17T04:52:51;4.4;;;3.3;;
17949;SDS011;9100;48.700;9.316;2023-05-17T04:53:51;4.4;;;3.3;;
17949;SDS011;9100;48.700;9.316;2023-05-17T04:54:51;3.8;;;2.7;;
17949;SDS011;9100;48.700;9.316;2023-05-17T04:54:53;3.7;;;2.6;;
17949;SDS011;9100;48.700;9.316;2023-05-17T04:55:51;3.7;;;2.6;;
17949;SDS011;9100;48.700;9.316;2023-05-17T04:56:51;3.7;;;2.6;;
17949;SDS011;9100;48.700;9.316;2023-05-17T04:57:51;3.7;;;2.6;;
17949;SDS011;9100;48.700;9.316;2023-05-17T04:58:51;3.7;;;2.6;;
17949;SDS011;9100;48.700;9.316;2023-05-17T04:59:51;4;;;3;;
17949;SDS011;9100;48.700;9.316;2023-05-17T04:59:53;4.1;;;3;;
17949;SDS011;9100;48.700;9.316;2023-05-17T05:00:51;4.1;;;3;;
17949;SDS011;9100;48.700;9.316;2023-05-17T05:01:51;4.1;;;3;;
17949;SDS011;9100;48.700;9.316;2023-05-17T05:02:51;4.1;;;3;;
17949;SDS011;9100;48.700;9.316;2023-05-17T05:03:51;4.1;;;3;;
17949;SDS011;9100;48.700;9.316;2023-05-17T05:04:51;7;;;3.4;;
17949;SDS011;9100;48.700;9.316;2023-05-17T05:04:53;6.9;;;3.4;;
17949;SDS011;9100;48.700;9.316;2023-05-17T05:05:51;6.9;;;3.4;;
17949;SDS011;9100;48.700;9.316;2023-05-17T05:06:51;6.9;;;3.4;;
17949;SDS011;9100;48.700;9.316;2023-05-17T05:07:51;6.9;;;3.4;;
17949;SDS011;9100;48.700;9.316;2023-05-17T05:08:51;6.9;;;3.4;;
17949;SDS011;9100;48.700;9.316;2023-05-17T05:09:51;2.9;;;2.6;;
17949;SDS011;9100;48.700;9.316;2023-05-17T05:09:53;2.8;;;2.5;;
17949;SDS011;9100;48.700;9.316;2023-05-17T05:10:51;2.8;;;2.5;;
17949;SDS011;9100;48.700;9.316;2023-05-17T05:11:51;2.8;;;2.5;;
17949;SDS011;9100;48.700;9.316;2023-05-17T05:12:51;2.8;;;2.5;;
17949;SDS011;9100;48.700;9.316;2023-05-17T05:13:51;2.8;;;2.5;;
17949;SDS011;9100;48.700;9.316;2023-05-17T05:14:51;3.2;;;2.7;;
17949;SDS011;9100;48.700;9.316;2023-05-17T05:14:53;3.3;;;2.7;;
17949;SDS011;9100;48.700;9.316;2023-05-17T05:15:51;3.3;;;2.7;;
17949;SDS011;9100;48.700;9.316;2023-05-17T05:16:51;3.3;;;2.7;;
17949;SDS011;9100;48.700;9.316;2023-05-17T05:17:51;3.3;;;2.7;;
17949;SDS011;9100;48.700;9.316;2023-05-17T05:18:51;3.3;;;2.7;;